Time;durP1;ratioP1;P1;durP2;ratioP2;P2;SDS_P1;SDS_P2;PMS_P1;PMS_P2;Temp;Humidity;BMP_temperature;BMP_pressure;BME280_temperature;BME280_humidity;BME280_pressure;Samples;Min_cycle;Max_cycle;Signal;HPM_P1;HPM_P2
2023/11/16 00:01:05;;;;;;;9.00;7.30;;;;;;;7.70;98.43;98597.78;105867;1251;72718;-73
2023/11/16 00:03:32;;;;;;;11.00;7.00;;;;;;;7.74;97.99;98600.51;106002;1251;70313;-74
2023/11/16 00:05:58;;;;;;;7.60;6.60;;;;;;;7.75;97.64;98600.36;106015;1253;72806;-73
2023/11/16 00:08:25;;;;;;;10.10;7.60;;;;;;;7.71;97.95;98603.59;106039;1251;60437;-72
2023/11/16 00:10:54;;;;;;;10.00;7.80;;;;;;;7.62;98.40;98608.12;106095;1257;60529;-74
2023/11/16 00:13:21;;;;;;;7.60;6.60;;;;;;;7.60;98.44;98600.80;106078;1254;74084;-73
2023/11/16 00:15:48;;;;;;;10.70;7.80;;;;;;;7.63;98.42;98604.15;106009;1257;70372;-74
2023/11/16 00:18:17;;;;;;;11.20;7.90;;;;;;;7.58;98.67;98599.59;105844;1257;72647;-72
2023/11/16 00:20:44;;;;;;;11.00;8.00;;;;;;;7.55;98.64;98602.33;106192;1251;60802;-74
2023/11/16 00:23:10;;;;;;;9.00;7.70;;;;;;;7.58;98.58;98596.63;105899;1252;60443;-71
2023/11/16 00:25:37;;;;;;;10.90;7.50;;;;;;;7.58;98.56;98601.09;105927;1252;73959;-70
2023/11/16 00:28:04;;;;;;;10.20;7.80;;;;;;;7.52;99.26;98603.46;106057;1254;70188;-71
2023/11/16 00:30:31;;;;;;;9.40;7.60;;;;;;;7.55;99.18;98600.58;105797;1256;72557;-73
2023/11/16 00:32:58;;;;;;;8.10;7.20;;;;;;;7.58;98.98;98599.63;105702;1254;61270;-71
2023/11/16 00:35:25;;;;;;;8.80;7.80;;;;;;;7.56;99.30;98604.67;106135;1251;60530;-71
2023/11/16 00:37:52;;;;;;;8.60;7.60;;;;;;;7.53;99.07;98606.17;105832;1254;73886;-73
2023/11/16 00:40:22;;;;;;;9.40;7.10;;;;;;;7.57;98.96;98609.30;106076;1251;70295;-75
2023/11/16 00:42:50;;;;;;;8.70;7.10;;;;;;;7.57;99.15;98614.70;106133;1254;72672;-75
2023/11/16 00:45:17;;;;;;;12.70;9.30;;;;;;;7.53;99.03;98613.31;106151;1254;60503;-76
2023/11/16 00:47:44;;;;;;;8.70;7.30;;;;;;;7.48;99.72;98615.46;106062;1254;60440;-76
2023/11/16 00:50:11;;;;;;;9.90;7.70;;;;;;;7.54;99.71;98615.08;106279;1255;72405;-77
2023/11/16 00:52:38;;;;;;;9.50;7.40;;;;;;;7.62;99.19;98612.23;107005;1254;69157;-75
2023/11/16 00:55:05;;;;;;;9.60;7.70;;;;;;;7.64;99.10;98614.58;107347;1256;60450;-71
2023/11/16 00:57:32;;;;;;;11.80;8.40;;;;;;;7.62;99.13;98616.05;107454;1251;60540;-74
2023/11/16 00:59:59;;;;;;;10.80;8.00;;;;;;;7.63;99.58;98614.02;106268;1256;60436;-74
2023/11/16 01:02:26;;;;;;;8.70;6.80;;;;;;;7.73;99.39;98617.09;106031;1254;72581;-72
2023/11/16 01:04:53;;;;;;;11.00;7.80;;;;;;;7.76;99.33;98616.08;106071;1254;70297;-74
2023/11/16 01:07:20;;;;;;;9.30;7.40;;;;;;;7.73;99.50;98618.06;106083;1253;71079;-72
2023/11/16 01:09:47;;;;;;;8.70;7.60;;;;;;;7.73;99.16;98621.16;106046;1255;62249;-73
2023/11/16 01:12:17;;;;;;;8.10;7.20;;;;;;;7.77;99.02;98623.53;106166;1254;60428;-73
2023/11/16 01:14:44;;;;;;;10.60;8.70;;;;;;;7.75;98.79;98621.31;106068;1251;72611;-70
2023/11/16 01:17:18;;;;;;;8.50;7.40;;;;;;;7.70;99.21;98622.84;105905;1251;70792;-71
2023/11/16 01:19:46;;;;;;;10.60;7.80;;;;;;;7.74;99.32;98625.31;106051;1254;72574;-71
2023/11/16 01:22:16;;;;;;;8.50;7.60;;;;;;;7.77;99.39;98625.28;105847;1253;61044;-72
2023/11/16 01:24:47;;;;;;;8.10;7.30;;;;;;;7.74;99.49;98626.55;105981;1253;60523;-73
2023/11/16 01:27:26;;;;;;;10.00;7.10;;;;;;;7.73;99.74;98629.09;106142;1255;73854;-70
2023/11/16 01:29:52;;;;;;;9.20;7.40;;;;;;;7.83;99.47;98629.41;106308;1251;70369;-71
2023/11/16 01:32:19;;;;;;;10.30;7.10;;;;;;;7.86;99.24;98628.48;106072;1251;72573;-73
2023/11/16 01:34:46;;;;;;;10.60;7.70;;;;;;;7.82;99.09;98626.80;105826;1257;60531;-69
2023/11/16 01:37:13;;;;;;;9.40;6.80;;;;;;;7.80;99.22;98631.11;105933;1251;60527;-69
2023/11/16 01:39:39;;;;;;;9.90;7.10;;;;;;;7.86;98.94;98631.98;106061;1251;74331;-70
2023/11/16 01:42:07;;;;;;;8.10;6.90;;;;;;;7.91;98.65;98630.20;105984;1251;70700;-70
2023/11/16 01:44:36;;;;;;;9.40;7.40;;;;;;;7.87;98.65;98631.00;105815;1254;72495;-69
2023/11/16 01:47:03;;;;;;;7.80;6.80;;;;;;;7.83;99.42;98631.73;105997;1251;60599;-71
2023/11/16 01:49:30;;;;;;;9.90;6.90;;;;;;;7.87;99.20;98624.48;105951;1251;187807;-70
2023/11/16 01:54:10;;;;;;;10.80;7.40;;;;;;;7.88;99.20;98618.68;102556;1299;601116;-70
2023/11/16 01:56:37;;;;;;;9.70;7.10;;;;;;;7.83;99.41;98623.92;105337;1264;61733;-70
2023/11/16 01:59:06;;;;;;;7.60;6.90;;;;;;;7.89;99.18;98620.90;105413;1262;59985;-68
2023/11/16 02:01:34;;;;;;;8.20;6.90;;;;;;;7.93;98.80;98625.02;105180;1257;71206;-71
2023/11/16 02:04:04;;;;;;;9.90;7.60;;;;;;;7.90;98.95;98623.27;105466;1263;69078;-71
2023/11/16 02:06:39;;;;;;;9.30;7.10;;;;;;;7.87;99.16;98625.41;105359;1264;71905;-69
2023/11/16 02:09:07;;;;;;;7.10;6.40;;;;;;;7.91;98.78;98618.56;105400;1259;61220;-71
2023/11/16 02:11:35;;;;;;;8.10;6.70;;;;;;;7.96;98.56;98616.96;105757;1257;60119;-71
2023/11/16 02:14:04;;;;;;;8.40;6.50;;;;;;;7.91;98.59;98615.76;105485;1256;72006;-69
2023/11/16 02:16:32;;;;;;;8.10;6.40;;;;;;;7.86;98.86;98613.69;105555;1258;70146;-70
2023/11/16 02:19:02;;;;;;;7.10;6.40;;;;;;;7.91;98.54;98620.39;105656;1258;72694;-72
2023/11/16 02:21:30;;;;;;;10.60;6.20;;;;;;;7.95;98.04;98622.16;105385;1260;59754;-70
2023/11/16 02:23:58;;;;;;;6.80;6.00;;;;;;;7.91;98.11;98623.85;105352;1261;59870;-71
2023/11/16 02:26:26;;;;;;;8.50;5.10;;;;;;;7.85;97.86;98629.69;105452;1257;71784;-68
2023/11/16 02:28:53;;;;;;;10.10;5.60;;;;;;;7.86;97.82;98630.20;105445;1254;68195;-71
2023/11/16 02:31:21;;;;;;;7.80;5.80;;;;;;;7.91;97.24;98632.02;105408;1258;71432;-70
2023/11/16 02:34:03;;;;;;;7.30;5.00;;;;;;;7.87;97.45;98628.71;105414;1255;59683;-72
2023/11/16 02:36:31;;;;;;;6.30;5.20;;;;;;;7.84;97.55;98634.35;105756;1257;59611;-72
2023/11/16 02:38:59;;;;;;;7.60;5.00;;;;;;;7.89;97.21;98634.81;105793;1258;72992;-70
2023/11/16 02:41:26;;;;;;;6.60;4.60;;;;;;;7.94;96.65;98633.45;105823;1254;70357;-69
2023/11/16 02:43:54;;;;;;;5.50;4.90;;;;;;;7.91;96.55;98632.76;105758;1257;72767;-72
2023/11/16 02:46:21;;;;;;;8.60;5.30;;;;;;;7.84;96.69;98638.39;105744;1254;61699;-72
2023/11/16 02:48:49;;;;;;;5.00;4.30;;;;;;;7.88;96.61;98639.91;105452;1258;60012;-71
2023/11/16 02:51:16;;;;;;;8.40;5.50;;;;;;;7.91;96.01;98640.31;105750;1254;75105;-70
2023/11/16 02:53:44;;;;;;;5.70;5.00;;;;;;;7.85;96.24;98642.23;105648;1254;69983;-72
2023/11/16 02:56:13;;;;;;;5.40;4.70;;;;;;;7.78;96.23;98645.83;105498;1260;72441;-72
2023/11/16 02:58:43;;;;;;;7.40;4.90;;;;;;;7.80;96.15;98649.54;105323;1260;60484;-73
2023/11/16 03:01:14;;;;;;;6.00;4.50;;;;;;;7.83;95.67;98648.81;105605;1259;59614;-71
2023/11/16 03:03:41;;;;;;;5.80;4.80;;;;;;;7.78;96.08;98649.73;105437;1262;71630;-72
2023/11/16 03:06:09;;;;;;;7.80;5.30;;;;;;;7.70;95.95;98653.43;105648;1256;69192;-71
2023/11/16 03:08:37;;;;;;;6.40;4.50;;;;;;;7.69;95.85;98651.91;105571;1258;71420;-72
2023/11/16 03:11:06;;;;;;;4.80;4.30;;;;;;;7.70;96.07;98654.82;105664;1256;60057;-72
2023/11/16 03:13:35;;;;;;;6.40;5.10;;;;;;;7.66;96.16;98652.14;105745;1256;60025;-71
2023/11/16 03:16:04;;;;;;;6.00;4.70;;;;;;;7.60;96.34;98659.80;105686;1257;72030;-71
2023/11/16 03:18:32;;;;;;;5.50;4.60;;;;;;;7.64;96.42;98664.98;105536;1261;67717;-71
2023/11/16 03:21:01;;;;;;;8.40;5.00;;;;;;;7.69;96.23;98669.80;105666;1257;72740;-70
2023/11/16 03:23:28;;;;;;;7.20;5.30;;;;;;;7.63;96.24;98675.35;105640;1255;60191;-70
2023/11/16 03:25:55;;;;;;;8.20;5.30;;;;;;;7.56;96.62;98676.89;105713;1257;60003;-72
2023/11/16 03:28:23;;;;;;;5.60;4.80;;;;;;;7.62;96.64;98679.92;105507;1261;73051;-73
2023/11/16 03:30:50;;;;;;;7.00;5.20;;;;;;;7.66;96.45;98683.95;105493;1257;70164;-71
2023/11/16 03:33:18;;;;;;;11.90;9.20;;;;;;;7.64;96.54;98683.54;105608;1259;72220;-68
2023/11/16 03:35:49;;;;;;;7.60;6.30;;;;;;;7.60;96.81;98683.47;105565;1258;60271;-72
2023/11/16 03:38:19;;;;;;;5.90;5.00;;;;;;;7.65;96.82;98686.04;105616;1257;59791;-71
2023/11/16 03:40:49;;;;;;;7.50;5.40;;;;;;;7.72;96.53;98684.42;105668;1259;73035;-71
2023/11/16 03:43:17;;;;;;;6.40;4.70;;;;;;;7.71;96.54;98683.33;105647;1257;70227;-73
2023/11/16 03:45:45;;;;;;;5.90;5.10;;;;;;;7.66;96.79;98686.83;105594;1258;71945;-72
2023/11/16 03:48:13;;;;;;;5.80;4.60;;;;;;;7.71;96.45;98685.38;105499;1254;61702;-71
2023/11/16 03:50:41;;;;;;;5.20;4.20;;;;;;;7.76;95.83;98690.14;105699;1256;60005;-70
2023/11/16 03:53:08;;;;;;;5.20;4.70;;;;;;;7.71;95.89;98687.00;105415;1256;73087;-72
2023/11/16 03:55:36;;;;;;;5.90;5.20;;;;;;;7.66;95.66;98685.61;105572;1257;68828;-71
2023/11/16 03:58:04;;;;;;;12.70;10.00;;;;;;;7.70;95.53;98682.21;105546;1256;71491;-70
2023/11/16 04:00:32;;;;;;;6.10;4.30;;;;;;;7.74;95.02;98683.98;105601;1257;59742;-70
2023/11/16 04:03:00;;;;;;;6.90;4.70;;;;;;;7.70;94.83;98682.31;105303;1261;61713;-69
2023/11/16 04:05:30;;;;;;;5.60;4.60;;;;;;;7.63;94.69;98680.14;105228;1257;70970;-72
2023/11/16 04:07:59;;;;;;;6.70;4.20;;;;;;;7.62;94.96;98688.31;105614;1256;70467;-70
2023/11/16 04:10:26;;;;;;;5.70;4.30;;;;;;;7.68;94.52;98698.19;105430;1258;72531;-72
2023/11/16 04:12:54;;;;;;;4.80;4.10;;;;;;;7.65;94.44;98700.71;105514;1258;59750;-70
2023/11/16 04:15:22;;;;;;;5.30;4.50;;;;;;;7.59;94.45;98702.67;105487;1256;59807;-72
2023/11/16 04:17:50;;;;;;;3.40;3.10;;;;;;;7.61;93.97;98707.88;105692;1255;71857;-70
2023/11/16 04:20:19;;;;;;;4.30;3.90;;;;;;;7.66;93.68;98710.39;105503;1256;68791;-71
2023/11/16 04:22:47;;;;;;;4.10;3.70;;;;;;;7.65;93.71;98706.37;105638;1261;73003;-72
2023/11/16 04:25:22;;;;;;;4.90;3.50;;;;;;;7.60;93.72;98710.02;105502;1256;60351;-74
2023/11/16 04:27:58;;;;;;;6.20;3.80;;;;;;;7.62;93.30;98712.37;105538;1256;59757;-70
2023/11/16 04:30:30;;;;;;;4.40;3.80;;;;;;;7.66;92.51;98710.91;105684;1255;71993;-72
2023/11/16 04:32:59;;;;;;;6.70;5.00;;;;;;;7.62;92.79;98714.27;105655;1261;70411;-70
2023/11/16 04:35:27;;;;;;;6.00;4.10;;;;;;;7.57;92.87;98713.95;105642;1256;71445;-72
2023/11/16 04:37:54;;;;;;;6.80;3.70;;;;;;;7.61;93.05;98714.12;105656;1256;61677;-72
2023/11/16 04:40:22;;;;;;;4.50;4.10;;;;;;;7.70;92.82;98711.39;105328;1260;60056;-72
2023/11/16 04:42:50;;;;;;;5.90;4.50;;;;;;;7.67;92.98;98713.98;105433;1257;73046;-71
2023/11/16 04:45:18;;;;;;;5.90;5.10;;;;;;;7.63;93.01;98719.88;105502;1255;70415;-70
2023/11/16 04:47:46;;;;;;;6.90;4.60;;;;;;;7.64;93.25;98721.93;105642;1259;73186;-73
2023/11/16 04:50:16;;;;;;;5.90;5.00;;;;;;;7.73;93.02;98723.84;105655;1255;60390;-71
2023/11/16 04:52:44;;;;;;;9.40;5.80;;;;;;;7.70;92.96;98724.11;105554;1262;60365;-73
2023/11/16 04:55:12;;;;;;;6.10;5.50;;;;;;;7.64;93.44;98724.05;105647;1258;72793;-71
2023/11/16 04:57:42;;;;;;;5.60;5.00;;;;;;;7.61;93.52;98727.06;105781;1256;69256;-70
2023/11/16 05:00:13;;;;;;;6.00;4.90;;;;;;;7.66;93.54;98727.17;105494;1256;72750;-70
2023/11/16 05:02:43;;;;;;;7.50;4.70;;;;;;;7.66;93.51;98728.11;105700;1255;59665;-72
2023/11/16 05:05:10;;;;;;;7.00;5.20;;;;;;;7.59;93.78;98728.71;105517;1259;59527;-70
2023/11/16 05:07:38;;;;;;;4.90;4.30;;;;;;;7.54;93.67;98730.71;105632;1257;70837;-70
2023/11/16 05:10:10;;;;;;;4.90;4.30;;;;;;;7.55;93.31;98731.23;105846;1256;69139;-74
2023/11/16 05:12:39;;;;;;;4.50;3.80;;;;;;;7.59;93.10;98736.11;105803;1255;70823;-71
2023/11/16 05:15:08;;;;;;;5.10;4.20;;;;;;;7.56;92.93;98739.80;105783;1257;59740;-71
2023/11/16 05:17:35;;;;;;;4.50;3.50;;;;;;;7.51;92.95;98742.94;105440;1257;60481;-73
2023/11/16 05:20:04;;;;;;;4.70;3.90;;;;;;;7.49;92.59;98745.54;105685;1259;73027;-71
2023/11/16 05:22:31;;;;;;;4.20;3.40;;;;;;;7.51;92.02;98749.29;105531;1256;70070;-73
2023/11/16 05:24:59;;;;;;;5.00;4.00;;;;;;;7.50;92.03;98752.47;105633;1256;71205;-71
2023/11/16 05:27:27;;;;;;;4.50;3.60;;;;;;;7.43;92.13;98751.64;105593;1256;60072;-71
2023/11/16 05:29:55;;;;;;;3.70;3.40;;;;;;;7.38;92.12;98758.87;105638;1256;60021;-72
2023/11/16 05:32:23;;;;;;;9.10;4.20;;;;;;;7.43;91.79;98757.82;105705;1259;73060;-70
2023/11/16 05:34:51;;;;;;;6.70;3.90;;;;;;;7.44;91.58;98761.45;105639;1255;70081;-74
2023/11/16 05:37:18;;;;;;;6.70;4.30;;;;;;;7.38;91.62;98766.86;105625;1260;70408;-72
2023/11/16 05:39:46;;;;;;;4.30;3.50;;;;;;;7.35;92.05;98770.21;105353;1256;60440;-72
2023/11/16 05:42:14;;;;;;;4.70;3.30;;;;;;;7.40;91.27;98773.23;105529;1256;59713;-71
2023/11/16 05:44:42;;;;;;;3.10;2.80;;;;;;;7.44;91.06;98778.50;105511;1258;71991;-72
2023/11/16 05:47:09;;;;;;;3.80;3.10;;;;;;;7.36;89.84;98783.40;105600;1260;70398;-73
2023/11/16 05:49:37;;;;;;;3.60;2.70;;;;;;;7.26;89.72;98781.83;105767;1256;71515;-71
2023/11/16 05:52:06;;;;;;;2.20;2.00;;;;;;;7.27;89.60;98781.05;105987;1257;60386;-72
2023/11/16 05:54:34;;;;;;;2.80;2.40;;;;;;;7.26;89.04;98787.98;105681;1258;59674;-72
2023/11/16 05:57:01;;;;;;;3.40;2.40;;;;;;;7.18;88.98;98793.84;105546;1256;73152;-72
2023/11/16 05:59:30;;;;;;;2.00;1.80;;;;;;;7.09;88.52;98797.33;105569;1256;68725;-72
2023/11/16 06:01:57;;;;;;;3.20;1.60;;;;;;;7.06;88.11;98799.08;105408;1260;72945;-74
2023/11/16 06:04:25;;;;;;;2.80;1.80;;;;;;;7.03;87.89;98798.66;105599;1257;60547;-76
2023/11/16 06:06:53;;;;;;;2.20;2.00;;;;;;;6.92;87.82;98800.54;105631;1256;60544;-75
2023/11/16 06:09:21;;;;;;;2.50;1.70;;;;;;;6.82;88.08;98797.90;105477;1260;73809;-73
2023/11/16 06:11:48;;;;;;;1.70;1.50;;;;;;;6.79;87.70;98794.74;105480;1256;70173;-71
2023/11/16 06:14:16;;;;;;;3.50;1.30;;;;;;;6.82;87.28;98791.96;105739;1257;71377;-73
2023/11/16 06:16:44;;;;;;;2.30;1.50;;;;;;;6.77;87.24;98790.74;105598;1260;60931;-73
2023/11/16 06:19:15;;;;;;;1.60;1.50;;;;;;;6.72;87.51;98795.17;105704;1254;60504;-72
2023/11/16 06:21:43;;;;;;;3.00;1.50;;;;;;;6.69;87.00;98797.09;105739;1254;74041;-74
2023/11/16 06:24:10;;;;;;;1.20;1.10;;;;;;;6.71;86.50;98797.42;105737;1257;68078;-75
2023/11/16 06:26:38;;;;;;;2.50;1.40;;;;;;;6.77;86.40;98805.02;105517;1256;73699;-75
2023/11/16 06:29:07;;;;;;;1.30;1.10;;;;;;;6.75;86.03;98807.41;105490;1256;60628;-76
2023/11/16 06:31:34;;;;;;;1.70;1.40;;;;;;;6.65;85.52;98809.67;105680;1256;60706;-74
2023/11/16 06:34:03;;;;;;;1.40;1.20;;;;;;;6.57;85.31;98805.09;105443;1255;73925;-75
2023/11/16 06:36:31;;;;;;;2.40;1.20;;;;;;;6.61;85.05;98807.86;105660;1258;70716;-77
2023/11/16 06:38:58;;;;;;;1.00;0.90;;;;;;;6.62;84.41;98808.55;105475;1261;72733;-76
2023/11/16 06:41:26;;;;;;;1.60;1.00;;;;;;;6.56;83.94;98805.95;105498;1256;60547;-75
2023/11/16 06:43:54;;;;;;;1.90;1.10;;;;;;;6.48;83.92;98809.73;105738;1259;60388;-81
2023/11/16 06:46:22;;;;;;;1.10;1.00;;;;;;;6.46;83.98;98809.70;105678;1259;74505;-74
2023/11/16 06:48:50;;;;;;;1.40;1.10;;;;;;;6.55;83.93;98811.84;105513;1256;69340;-74
2023/11/16 06:51:18;;;;;;;4.40;1.70;;;;;;;6.57;84.01;98813.20;105484;1256;71056;-75
2023/11/16 06:53:46;;;;;;;2.70;1.50;;;;;;;6.56;83.82;98811.17;105617;1260;60402;-74
2023/11/16 06:56:14;;;;;;;2.00;1.60;;;;;;;6.54;83.60;98813.53;105810;1254;60535;-72
2023/11/16 06:58:42;;;;;;;2.80;1.80;;;;;;;6.51;83.69;98818.67;105732;1254;72053;-74
2023/11/16 07:01:10;;;;;;;3.80;2.10;;;;;;;6.60;83.69;98818.81;105708;1260;69161;-73
2023/11/16 07:03:37;;;;;;;3.50;2.20;;;;;;;6.63;83.21;98824.67;105508;1260;71467;-75
2023/11/16 07:06:06;;;;;;;3.30;2.10;;;;;;;6.59;83.53;98826.48;105723;1260;59995;-74
2023/11/16 07:08:34;;;;;;;2.40;1.80;;;;;;;6.56;83.40;98827.52;105693;1258;60544;-72
2023/11/16 07:11:01;;;;;;;5.10;1.90;;;;;;;6.61;83.20;98824.05;105513;1255;73787;-72
2023/11/16 07:13:28;;;;;;;4.70;2.20;;;;;;;6.67;83.24;98825.95;105675;1256;70940;-75
2023/11/16 07:15:57;;;;;;;2.80;1.50;;;;;;;6.66;83.01;98826.64;105825;1256;75083;-73
2023/11/16 07:18:24;;;;;;;6.90;1.70;;;;;;;6.60;82.37;98826.07;105751;1256;60570;-75
2023/11/16 07:20:52;;;;;;;3.10;1.30;;;;;;;6.51;82.17;98830.82;105516;1255;60433;-74
2023/11/16 07:23:20;;;;;;;1.70;1.30;;;;;;;6.52;82.18;98833.21;105618;1258;73853;-73
2023/11/16 07:25:49;;;;;;;5.30;1.80;;;;;;;6.55;82.03;98834.54;105724;1260;69101;-74
2023/11/16 07:28:17;;;;;;;3.30;1.30;;;;;;;6.48;82.12;98837.15;105262;1261;71949;-73
2023/11/16 07:30:45;;;;;;;1.60;1.20;;;;;;;6.39;82.60;98847.42;106221;1254;60521;-75
2023/11/16 07:33:15;;;;;;;2.30;1.10;;;;;;;6.30;83.10;98854.54;106585;1255;60586;-73
2023/11/16 07:35:45;;;;;;;1.70;1.20;;;;;;;6.28;83.04;98857.36;106070;1260;72629;-75
2023/11/16 07:38:14;;;;;;;1.80;1.40;;;;;;;6.20;83.38;98858.25;105933;1254;69177;-76
2023/11/16 07:40:43;;;;;;;1.40;1.20;;;;;;;6.09;84.00;98860.77;106310;1256;74779;-77
2023/11/16 07:43:11;;;;;;;1.30;0.90;;;;;;;6.02;84.33;98867.45;105808;1254;61875;-76
2023/11/16 07:45:39;;;;;;;3.50;1.10;;;;;;;6.04;84.47;98869.36;105882;1255;60559;-80
2023/11/16 07:48:09;;;;;;;1.80;1.20;;;;;;;5.98;83.72;98884.27;105766;1254;72679;-76
2023/11/16 07:50:37;;;;;;;2.70;0.90;;;;;;;5.83;83.52;98888.05;105826;1254;70336;-77
2023/11/16 07:53:10;;;;;;;1.40;1.10;;;;;;;5.70;83.28;98894.29;106196;1254;71528;-81
2023/11/16 07:55:40;;;;;;;3.40;1.20;;;;;;;5.65;82.95;98895.38;107185;1254;60388;-77
2023/11/16 07:58:13;;;;;;;2.90;1.10;;;;;;;5.65;82.19;98898.04;106567;1255;62118;-77
2023/11/16 08:01:29;;;;;;;1.80;1.20;;;;;;;5.58;82.38;98903.61;106377;1254;72697;-75
2023/11/16 08:03:45;;;;;;;1.50;1.10;;;;;;;5.50;82.47;98910.22;106732;1253;70350;-75
2023/11/16 08:06:15;;;;;;;1.40;0.90;;;;;;;5.45;82.41;98914.73;106209;1254;75486;-77
2023/11/16 08:08:45;;;;;;;2.10;0.80;;;;;;;5.51;81.67;98916.81;106345;1254;60457;-76
2023/11/16 08:11:13;;;;;;;1.60;1.10;;;;;;;5.52;81.49;98920.08;105969;1254;60892;-75
2023/11/16 08:13:45;;;;;;;2.20;1.10;;;;;;;5.48;81.74;98926.90;105872;1254;72669;-76
2023/11/16 08:16:16;;;;;;;1.30;1.10;;;;;;;5.45;80.93;98928.83;105834;1253;69627;-75
2023/11/16 08:18:44;;;;;;;1.00;0.80;;;;;;;5.40;80.33;98936.73;105855;1255;72166;-76
2023/11/16 08:21:12;;;;;;;3.00;1.20;;;;;;;5.41;79.57;98933.05;105781;1258;60058;-77
2023/11/16 08:23:43;;;;;;;1.60;1.20;;;;;;;5.44;79.00;98942.26;105805;1256;60519;-75
2023/11/16 08:26:19;;;;;;;1.40;1.20;;;;;;;5.36;78.97;98944.54;105773;1257;72810;-74
2023/11/16 08:28:47;;;;;;;1.90;1.40;;;;;;;5.28;79.14;98946.36;105713;1254;70085;-75
2023/11/16 08:31:16;;;;;;;2.30;1.30;;;;;;;5.22;78.78;98947.48;105961;1255;72641;-76
2023/11/16 08:33:44;;;;;;;3.20;0.80;;;;;;;5.19;78.48;98953.38;105716;1258;60403;-75
2023/11/16 08:36:15;;;;;;;0.80;0.80;;;;;;;5.23;77.34;98954.36;105710;1255;60876;-75
2023/11/16 08:38:45;;;;;;;1.80;0.90;;;;;;;5.17;76.81;98964.84;105683;1258;76626;-74
2023/11/16 08:41:17;;;;;;;1.00;0.90;;;;;;;5.07;76.92;98968.08;105694;1255;70291;-74
2023/11/16 08:43:47;;;;;;;1.50;0.70;;;;;;;5.00;77.28;98970.39;105887;1256;74730;-74
2023/11/16 08:46:20;;;;;;;1.70;0.90;;;;;;;4.94;77.27;98971.11;105946;1259;60544;-74
2023/11/16 08:48:50;;;;;;;1.50;1.00;;;;;;;4.99;77.13;98972.20;105751;1254;61101;-75
2023/11/16 08:51:18;;;;;;;2.70;1.00;;;;;;;5.02;77.58;98973.45;105614;1254;72759;-75
2023/11/16 08:53:50;;;;;;;1.30;0.90;;;;;;;4.98;77.42;98974.23;105661;1260;68871;-76
2023/11/16 08:56:17;;;;;;;4.20;1.80;;;;;;;4.88;77.46;98977.43;105653;1254;72070;-75
2023/11/16 08:58:58;;;;;;;1.60;1.10;;;;;;;4.79;77.96;98976.06;105863;1256;60900;-73
2023/11/16 09:01:27;;;;;;;1.60;1.20;;;;;;;4.84;78.01;98981.02;105742;1256;60467;-75
2023/11/16 09:03:57;;;;;;;2.30;1.40;;;;;;;4.87;78.02;98985.77;105735;1256;76368;-73
2023/11/16 09:06:26;;;;;;;3.20;1.40;;;;;;;4.80;77.91;98991.62;105805;1255;72970;-75
2023/11/16 09:08:56;;;;;;;2.00;1.20;;;;;;;4.70;78.46;98993.04;105661;1261;70932;-74
2023/11/16 09:11:27;;;;;;;3.70;1.70;;;;;;;4.63;78.77;98994.52;105847;1254;60619;-74
2023/11/16 09:13:54;;;;;;;2.40;1.40;;;;;;;4.58;78.84;98998.09;105780;1256;60426;-73
2023/11/16 09:16:22;;;;;;;2.10;1.30;;;;;;;4.62;78.73;98994.57;105672;1260;73905;-74
2023/11/16 09:18:50;;;;;;;1.90;1.50;;;;;;;4.67;79.21;99000.27;105672;1255;69370;-75
2023/11/16 09:21:18;;;;;;;2.10;1.50;;;;;;;4.65;79.58;99004.27;105557;1256;72126;-75
2023/11/16 09:23:45;;;;;;;2.30;1.50;;;;;;;4.57;79.98;99001.16;105524;1256;61611;-76
2023/11/16 09:26:13;;;;;;;2.40;1.40;;;;;;;4.48;80.69;98998.55;105747;1257;60541;-74
2023/11/16 09:28:41;;;;;;;2.30;1.70;;;;;;;4.48;81.10;99000.30;105650;1261;73862;-75
2023/11/16 09:31:15;;;;;;;2.10;1.40;;;;;;;4.50;81.86;98999.73;105747;1254;70499;-76
2023/11/16 09:33:42;;;;;;;2.10;1.80;;;;;;;4.41;82.15;98996.27;105695;1259;74767;-75
2023/11/16 09:36:13;;;;;;;2.40;1.70;;;;;;;4.30;82.98;98989.91;105640;1261;60589;-74
2023/11/16 09:38:44;;;;;;;1.60;1.40;;;;;;;4.22;83.53;98990.69;105713;1259;61560;-74
2023/11/16 09:41:21;;;;;;;2.30;1.40;;;;;;;4.23;83.66;98991.83;105815;1261;71978;-75
2023/11/16 09:43:51;;;;;;;2.50;1.90;;;;;;;4.20;84.03;98988.25;105688;1260;69038;-75
2023/11/16 09:46:19;;;;;;;3.60;2.00;;;;;;;4.10;84.98;98990.23;105650;1255;75363;-75
2023/11/16 09:48:47;;;;;;;3.00;2.00;;;;;;;4.02;85.22;98993.06;105510;1261;60366;-74
2023/11/16 09:51:14;;;;;;;2.60;1.80;;;;;;;4.00;85.42;98993.83;105591;1254;60341;-74
2023/11/16 09:53:43;;;;;;;2.70;1.60;;;;;;;4.05;85.34;98995.02;105769;1260;73971;-76
2023/11/16 09:56:11;;;;;;;2.20;2.00;;;;;;;4.02;86.13;98993.82;105720;1256;72781;-75
2023/11/16 09:58:39;;;;;;;3.30;2.00;;;;;;;3.93;86.47;98997.75;105772;1255;70288;-75
2023/11/16 10:01:10;;;;;;;2.70;1.80;;;;;;;3.87;87.15;98997.63;105808;1256;60724;-75
2023/11/16 10:03:40;;;;;;;2.80;1.80;;;;;;;3.93;87.13;98993.55;105940;1253;60533;-74
2023/11/16 10:06:10;;;;;;;4.70;1.90;;;;;;;3.96;87.15;98993.11;105884;1260;73925;-74
2023/11/16 10:08:40;;;;;;;2.90;2.10;;;;;;;3.92;87.46;98993.11;105888;1253;68350;-74
2023/11/16 10:11:09;;;;;;;3.90;2.20;;;;;;;3.90;88.35;98994.55;105846;1256;75077;-75
2023/11/16 10:13:37;;;;;;;4.20;2.20;;;;;;;3.87;88.36;98992.05;105808;1254;62903;-73
2023/11/16 10:16:11;;;;;;;2.90;2.10;;;;;;;3.91;87.83;98996.52;105840;1256;61668;-74
2023/11/16 10:18:39;;;;;;;3.80;2.40;;;;;;;3.93;87.85;98994.41;105701;1255;76175;-73
2023/11/16 10:21:08;;;;;;;3.30;2.30;;;;;;;3.89;87.89;98990.48;105639;1257;71560;-75
2023/11/16 10:23:36;;;;;;;3.20;2.20;;;;;;;3.82;87.98;98994.75;105698;1256;74099;-76
2023/11/16 10:26:05;;;;;;;1.90;1.60;;;;;;;3.84;87.99;98995.36;105605;1255;60838;-75
2023/11/16 10:28:34;;;;;;;2.30;1.30;;;;;;;3.92;87.60;98996.27;105765;1256;60631;-75
2023/11/16 10:31:01;;;;;;;3.30;1.90;;;;;;;3.91;87.67;98994.64;105703;1261;74121;-75
2023/11/16 10:33:29;;;;;;;4.50;1.80;;;;;;;3.84;87.55;99003.38;105620;1260;70013;-76
2023/11/16 10:35:57;;;;;;;4.70;1.40;;;;;;;3.80;87.67;99004.58;105698;1256;72618;-75
2023/11/16 10:38:27;;;;;;;2.00;1.60;;;;;;;3.88;87.65;99006.81;105661;1258;61532;-76
2023/11/16 10:40:55;;;;;;;3.20;2.10;;;;;;;3.88;87.77;99004.02;105679;1259;62301;-73
2023/11/16 10:43:27;;;;;;;2.70;1.70;;;;;;;3.87;87.80;99012.38;105562;1254;73841;-74
2023/11/16 10:46:03;;;;;;;3.30;1.90;;;;;;;3.83;87.79;99013.77;105587;1256;69927;-74
2023/11/16 10:48:30;;;;;;;1.40;1.20;;;;;;;3.87;87.06;99017.39;105798;1255;73060;-72
2023/11/16 10:51:00;;;;;;;2.00;1.30;;;;;;;3.87;86.08;99020.93;105598;1256;62163;-75
2023/11/16 10:53:38;;;;;;;2.50;1.40;;;;;;;3.80;86.55;99024.38;105663;1255;60579;-75
2023/11/16 10:56:11;;;;;;;2.70;1.40;;;;;;;3.78;87.04;99027.62;105561;1260;73097;-75
2023/11/16 10:58:40;;;;;;;2.00;1.40;;;;;;;3.80;86.33;99030.19;105595;1260;69693;-74
2023/11/16 11:01:11;;;;;;;1.80;1.40;;;;;;;3.86;85.82;99026.99;105761;1259;71461;-75
2023/11/16 11:03:47;;;;;;;2.20;1.70;;;;;;;3.87;86.00;99030.05;105871;1255;60500;-72
2023/11/16 11:06:22;;;;;;;2.60;2.00;;;;;;;3.84;86.35;99030.52;105814;1255;62220;-77
2023/11/16 11:08:53;;;;;;;2.10;1.50;;;;;;;3.82;86.27;99028.21;105799;1256;72664;-74
2023/11/16 11:11:26;;;;;;;2.20;1.60;;;;;;;3.91;86.34;99039.28;105818;1258;68867;-75
2023/11/16 11:13:56;;;;;;;2.50;1.60;;;;;;;3.96;85.94;99038.84;105858;1260;72766;-74
2023/11/16 11:16:27;;;;;;;2.10;1.40;;;;;;;3.91;85.63;99042.63;106161;1260;61141;-73
2023/11/16 11:18:57;;;;;;;2.40;1.30;;;;;;;3.83;85.46;99042.86;106233;1258;61509;-74
2023/11/16 11:21:30;;;;;;;1.90;1.40;;;;;;;3.79;85.42;99046.92;106174;1254;72599;-77
2023/11/16 11:24:05;;;;;;;3.20;1.60;;;;;;;3.86;84.91;99047.71;106784;1255;70246;-73
2023/11/16 11:26:40;;;;;;;2.20;1.80;;;;;;;3.87;85.20;99048.14;106492;1255;72993;-74
2023/11/16 11:29:08;;;;;;;2.00;1.60;;;;;;;3.83;85.61;99046.88;106964;1255;60312;-74
2023/11/16 11:31:50;;;;;;;4.80;1.40;;;;;;;3.82;85.61;99047.02;107108;1254;60294;-76
2023/11/16 11:34:27;;;;;;;2.60;1.40;;;;;;;3.91;85.32;99048.21;108257;1255;72997;-78
2023/11/16 11:36:55;;;;;;;2.40;1.50;;;;;;;3.95;84.78;99041.90;107803;1254;70897;-76
2023/11/16 11:39:34;;;;;;;3.40;1.60;;;;;;;3.91;84.87;99045.64;108051;1254;73821;-78
2023/11/16 11:42:04;;;;;;;2.20;1.40;;;;;;;3.85;84.38;99047.20;107534;1257;61393;-79